sensor_id;sensor_type;location;lat;lon;timestamp;temperature;humidity
25568;DHT22;13455;51.480;7.594;2023-05-28T00:00:27;14.60;99.90
25568;DHT22;13455;51.480;7.594;2023-05-28T00:05:22;14.50;99.90
25568;DHT22;13455;51.480;7.594;2023-05-28T00:07:47;14.70;99.90
25568;DHT22;13455;51.480;7.594;2023-05-28T00:10:13;14.50;99.90
25568;DHT22;13455;51.480;7.594;2023-05-28T00:12:39;14.50;99.90
25568;DHT22;13455;51.480;7.594;2023-05-28T00:15:05;13.90;99.90
25568;DHT22;13455;51.480;7.594;2023-05-28T00:17:31;14.10;99.90
25568;DHT22;13455;51.480;7.594;2023-05-28T00:19:56;14.00;99.90
25568;DHT22;13455;51.480;7.594;2023-05-28T00:22:22;14.60;99.90
25568;DHT22;13455;51.480;7.594;2023-05-28T00:24:48;14.00;99.90
25568;DHT22;13455;51.480;7.594;2023-05-28T00:27:13;14.10;99.90
25568;DHT22;13455;51.480;7.594;2023-05-28T00:29:39;14.00;99.90
25568;DHT22;13455;51.480;7.594;2023-05-28T00:32:05;13.90;99.90
25568;DHT22;13455;51.480;7.594;2023-05-28T00:36:57;13.80;99.90
25568;DHT22;13455;51.480;7.594;2023-05-28T00:39:22;13.70;99.90
25568;DHT22;13455;51.480;7.594;2023-05-28T00:41:48;13.70;99.90
25568;DHT22;13455;51.480;7.594;2023-05-28T00:44:13;13.70;99.90
25568;DHT22;13455;51.480;7.594;2023-05-28T00:46:41;13.60;99.90
25568;DHT22;13455;51.480;7.594;2023-05-28T00:49:09;13.60;99.90
25568;DHT22;13455;51.480;7.594;2023-05-28T00:51:36;13.70;99.90
25568;DHT22;13455;51.480;7.594;2023-05-28T00:54:03;13.50;99.90
25568;DHT22;13455;51.480;7.594;2023-05-28T00:56:28;13.50;99.90
25568;DHT22;13455;51.480;7.594;2023-05-28T00:58:57;13.50;99.90
25568;DHT22;13455;51.480;7.594;2023-05-28T01:01:25;13.40;99.90
25568;DHT22;13455;51.480;7.594;2023-05-28T01:03:51;13.40;99.90
25568;DHT22;13455;51.480;7.594;2023-05-28T01:06:17;13.30;99.90
25568;DHT22;13455;51.480;7.594;2023-05-28T01:08:46;13.30;99.90
25568;DHT22;13455;51.480;7.594;2023-05-28T01:11:16;13.50;99.90
25568;DHT22;13455;51.480;7.594;2023-05-28T01:13:44;13.50;99.90
25568;DHT22;13455;51.480;7.594;2023-05-28T01:16:10;13.10;99.90
25568;DHT22;13455;51.480;7.594;2023-05-28T01:18:36;13.10;99.90
25568;DHT22;13455;51.480;7.594;2023-05-28T01:21:06;13.00;99.90
25568;DHT22;13455;51.480;7.594;2023-05-28T01:23:44;13.10;99.90
25568;DHT22;13455;51.480;7.594;2023-05-28T01:26:15;13.40;99.90
25568;DHT22;13455;51.480;7.594;2023-05-28T01:28:48;13.20;99.90
25568;DHT22;13455;51.480;7.594;2023-05-28T01:31:15;13.00;99.90
25568;DHT22;13455;51.480;7.594;2023-05-28T01:33:42;13.40;99.90
25568;DHT22;13455;51.480;7.594;2023-05-28T01:41:25;12.50;99.90
25568;DHT22;13455;51.480;7.594;2023-05-28T01:43:52;13.10;99.90
25568;DHT22;13455;51.480;7.594;2023-05-28T01:46:19;13.00;99.90
25568;DHT22;13455;51.480;7.594;2023-05-28T01:48:46;14.20;99.90
25568;DHT22;13455;51.480;7.594;2023-05-28T01:51:16;14.00;99.90
25568;DHT22;13455;51.480;7.594;2023-05-28T01:53:42;13.40;99.90
25568;DHT22;13455;51.480;7.594;2023-05-28T01:56:07;13.30;99.90
25568;DHT22;13455;51.480;7.594;2023-05-28T01:58:33;13.60;99.90
25568;DHT22;13455;51.480;7.594;2023-05-28T02:01:11;12.90;99.90
25568;DHT22;13455;51.480;7.594;2023-05-28T02:03:40;13.80;99.90
25568;DHT22;13455;51.480;7.594;2023-05-28T02:06:05;12.50;99.90
25568;DHT22;13455;51.480;7.594;2023-05-28T02:08:31;12.50;99.90
25568;DHT22;13455;51.480;7.594;2023-05-28T02:10:57;12.60;99.90
25568;DHT22;13455;51.480;7.594;2023-05-28T02:13:22;12.40;99.90
25568;DHT22;13455;51.480;7.594;2023-05-28T02:15:48;12.30;99.90
25568;DHT22;13455;51.480;7.594;2023-05-28T02:18:13;12.30;99.90
25568;DHT22;13455;51.480;7.594;2023-05-28T02:20:41;12.40;99.90
25568;DHT22;13455;51.480;7.594;2023-05-28T02:23:07;12.40;99.90
25568;DHT22;13455;51.480;7.594;2023-05-28T02:25:33;12.30;99.90
25568;DHT22;13455;51.480;7.594;2023-05-28T02:27:58;12.80;99.90
25568;DHT22;13455;51.480;7.594;2023-05-28T02:30:24;12.30;99.90
25568;DHT22;13455;51.480;7.594;2023-05-28T02:32:49;12.20;99.90
25568;DHT22;13455;51.480;7.594;2023-05-28T02:35:15;12.40;99.90
25568;DHT22;13455;51.480;7.594;2023-05-28T02:37:41;12.20;99.90
25568;DHT22;13455;51.480;7.594;2023-05-28T02:40:07;12.40;99.90
25568;DHT22;13455;51.480;7.594;2023-05-28T02:42:35;12.10;99.90
25568;DHT22;13455;51.480;7.594;2023-05-28T02:45:01;12.10;99.90
25568;DHT22;13455;51.480;7.594;2023-05-28T02:47:26;12.00;99.90
25568;DHT22;13455;51.480;7.594;2023-05-28T02:49:52;11.90;99.90
25568;DHT22;13455;51.480;7.594;2023-05-28T02:52:17;13.00;99.90
25568;DHT22;13455;51.480;7.594;2023-05-28T02:54:43;13.30;99.90
25568;DHT22;13455;51.480;7.594;2023-05-28T02:57:08;12.90;99.90
25568;DHT22;13455;51.480;7.594;2023-05-28T02:59:34;12.40;99.90
25568;DHT22;13455;51.480;7.594;2023-05-28T03:02:00;12.30;99.90
25568;DHT22;13455;51.480;7.594;2023-05-28T03:04:25;11.70;99.90
25568;DHT22;13455;51.480;7.594;2023-05-28T03:06:51;12.60;99.90
25568;DHT22;13455;51.480;7.594;2023-05-28T03:09:17;11.50;99.90
25568;DHT22;13455;51.480;7.594;2023-05-28T03:14:08;11.50;99.90
25568;DHT22;13455;51.480;7.594;2023-05-28T03:16:34;12.10;99.90
25568;DHT22;13455;51.480;7.594;2023-05-28T03:21:28;11.40;99.90
25568;DHT22;13455;51.480;7.594;2023-05-28T03:23:54;11.10;99.90
25568;DHT22;13455;51.480;7.594;2023-05-28T03:26:19;11.70;99.90
25568;DHT22;13455;51.480;7.594;2023-05-28T03:28:45;11.80;99.90
25568;DHT22;13455;51.480;7.594;2023-05-28T03:31:11;11.50;99.90
25568;DHT22;13455;51.480;7.594;2023-05-28T03:33:38;11.20;99.90
25568;DHT22;13455;51.480;7.594;2023-05-28T03:36:03;11.20;99.90
25568;DHT22;13455;51.480;7.594;2023-05-28T03:38:31;11.20;99.90
25568;DHT22;13455;51.480;7.594;2023-05-28T03:40:57;11.20;99.90
25568;DHT22;13455;51.480;7.594;2023-05-28T03:43:22;11.10;99.90
25568;DHT22;13455;51.480;7.594;2023-05-28T03:45:48;11.30;99.90
25568;DHT22;13455;51.480;7.594;2023-05-28T03:48:14;13.00;99.90
25568;DHT22;13455;51.480;7.594;2023-05-28T03:50:40;12.00;99.90
25568;DHT22;13455;51.480;7.594;2023-05-28T03:53:06;10.90;99.90
25568;DHT22;13455;51.480;7.594;2023-05-28T03:55:33;10.10;99.90
25568;DHT22;13455;51.480;7.594;2023-05-28T03:58:00;11.30;99.90
25568;DHT22;13455;51.480;7.594;2023-05-28T04:00:26;12.10;99.90
25568;DHT22;13455;51.480;7.594;2023-05-28T04:02:51;10.80;99.90
25568;DHT22;13455;51.480;7.594;2023-05-28T04:05:17;11.20;99.90
25568;DHT22;13455;51.480;7.594;2023-05-28T04:07:42;12.10;99.90
25568;DHT22;13455;51.480;7.594;2023-05-28T04:10:08;11.50;99.90
25568;DHT22;13455;51.480;7.594;2023-05-28T04:12:34;10.90;99.90
25568;DHT22;13455;51.480;7.594;2023-05-28T04:15:00;11.20;99.90
25568;DHT22;13455;51.480;7.594;2023-05-28T04:17:26;10.90;99.90
25568;DHT22;13455;51.480;7.594;2023-05-28T04:19:55;10.60;99.90
25568;DHT22;13455;51.480;7.594;2023-05-28T04:22:21;11.70;99.90
25568;DHT22;13455;51.480;7.594;2023-05-28T04:24:49;12.10;99.90
25568;DHT22;13455;51.480;7.594;2023-05-28T04:27:17;12.50;99.90
25568;DHT22;13455;51.480;7.594;2023-05-28T04:29:43;11.10;99.90
25568;DHT22;13455;51.480;7.594;2023-05-28T04:32:09;11.10;99.90
25568;DHT22;13455;51.480;7.594;2023-05-28T04:34:35;11.20;99.90
25568;DHT22;13455;51.480;7.594;2023-05-28T04:37:02;11.60;99.90
25568;DHT22;13455;51.480;7.594;2023-05-28T04:39:29;11.20;99.90
25568;DHT22;13455;51.480;7.594;2023-05-28T04:41:55;11.10;99.90
25568;DHT22;13455;51.480;7.594;2023-05-28T04:44:21;12.10;99.90
25568;DHT22;13455;51.480;7.594;2023-05-28T04:46:51;11.20;99.90
25568;DHT22;13455;51.480;7.594;2023-05-28T04:49:17;11.50;99.90
25568;DHT22;13455;51.480;7.594;2023-05-28T04:51:43;11.50;99.90
25568;DHT22;13455;51.480;7.594;2023-05-28T04:54:09;11.90;99.90
25568;DHT22;13455;51.480;7.594;2023-05-28T04:56:37;12.30;99.90
25568;DHT22;13455;51.480;7.594;2023-05-28T04:59:03;11.40;99.90
25568;DHT22;13455;51.480;7.594;2023-05-28T05:01:31;11.40;99.90
25568;DHT22;13455;51.480;7.594;2023-05-28T05:03:59;11.40;99.90
25568;DHT22;13455;51.480;7.594;2023-05-28T05:06:25;12.80;99.90
25568;DHT22;13455;51.480;7.594;2023-05-28T05:08:50;11.50;99.90
25568;DHT22;13455;51.480;7.594;2023-05-28T05:11:16;12.30;99.90
25568;DHT22;13455;51.480;7.594;2023-05-28T05:13:42;12.80;99.90
25568;DHT22;13455;51.480;7.594;2023-05-28T05:16:07;12.90;99.90
25568;DHT22;13455;51.480;7.594;2023-05-28T05:18:33;11.80;99.90
25568;DHT22;13455;51.480;7.594;2023-05-28T05:20:59;11.80;99.90
25568;DHT22;13455;51.480;7.594;2023-05-28T05:23:25;11.90;99.90
25568;DHT22;13455;51.480;7.594;2023-05-28T05:25:51;12.10;99.90
25568;DHT22;13455;51.480;7.594;2023-05-28T05:28:17;12.70;99.90
25568;DHT22;13455;51.480;7.594;2023-05-28T05:30:43;13.10;99.90
25568;DHT22;13455;51.480;7.594;2023-05-28T05:33:08;12.80;99.90
25568;DHT22;13455;51.480;7.594;2023-05-28T05:35:35;12.90;99.90
25568;DHT22;13455;51.480;7.594;2023-05-28T05:38:00;12.40;99.90
25568;DHT22;13455;51.480;7.594;2023-05-28T05:40:27;12.60;99.90
25568;DHT22;13455;51.480;7.594;2023-05-28T05:42:53;12.60;99.90
25568;DHT22;13455;51.480;7.594;2023-05-28T05:45:19;12.60;99.90
25568;DHT22;13455;51.480;7.594;2023-05-28T05:47:44;12.70;99.90
25568;DHT22;13455;51.480;7.594;2023-05-28T05:50:11;12.80;99.90
25568;DHT22;13455;51.480;7.594;2023-05-28T05:52:38;13.00;99.90
25568;DHT22;13455;51.480;7.594;2023-05-28T05:55:04;12.40;99.90
25568;DHT22;13455;51.480;7.594;2023-05-28T05:57:31;13.20;99.90
25568;DHT22;13455;51.480;7.594;2023-05-28T05:59:57;13.50;99.90
25568;DHT22;13455;51.480;7.594;2023-05-28T06:02:23;13.40;99.90
25568;DHT22;13455;51.480;7.594;2023-05-28T06:04:48;13.60;99.90
25568;DHT22;13455;51.480;7.594;2023-05-28T06:07:14;13.70;99.90
25568;DHT22;13455;51.480;7.594;2023-05-28T06:09:40;13.80;99.90
25568;DHT22;13455;51.480;7.594;2023-05-28T06:12:06;14.00;99.90
25568;DHT22;13455;51.480;7.594;2023-05-28T06:14:31;14.00;99.90
25568;DHT22;13455;51.480;7.594;2023-05-28T06:16:57;14.20;99.90
25568;DHT22;13455;51.480;7.594;2023-05-28T06:19:23;14.30;99.90
25568;DHT22;13455;51.480;7.594;2023-05-28T06:21:49;14.50;99.90
25568;DHT22;13455;51.480;7.594;2023-05-28T06:24:15;14.50;99.90
25568;DHT22;13455;51.480;7.594;2023-05-28T06:26:41;14.60;99.90
25568;DHT22;13455;51.480;7.594;2023-05-28T06:29:07;15.40;99.90
25568;DHT22;13455;51.480;7.594;2023-05-28T06:31:35;14.80;99.90
25568;DHT22;13455;51.480;7.594;2023-05-28T06:34:00;14.90;99.90
25568;DHT22;13455;51.480;7.594;2023-05-28T06:36:28;15.00;99.90
25568;DHT22;13455;51.480;7.594;2023-05-28T06:38:53;15.10;99.90
25568;DHT22;13455;51.480;7.594;2023-05-28T06:41:19;15.00;99.90
25568;DHT22;13455;51.480;7.594;2023-05-28T06:43:45;15.30;99.90
25568;DHT22;13455;51.480;7.594;2023-05-28T06:46:11;15.50;99.90
25568;DHT22;13455;51.480;7.594;2023-05-28T06:48:38;17.70;99.90
25568;DHT22;13455;51.480;7.594;2023-05-28T06:51:03;15.70;99.90
25568;DHT22;13455;51.480;7.594;2023-05-28T06:53:29;15.80;99.90
25568;DHT22;13455;51.480;7.594;2023-05-28T06:55:55;15.90;99.90
25568;DHT22;13455;51.480;7.594;2023-05-28T06:58:21;16.10;99.90
25568;DHT22;13455;51.480;7.594;2023-05-28T07:00:46;16.10;99.90
25568;DHT22;13455;51.480;7.594;2023-05-28T07:03:12;16.40;99.90
25568;DHT22;13455;51.480;7.594;2023-05-28T07:05:37;16.60;99.90
25568;DHT22;13455;51.480;7.594;2023-05-28T07:08:03;16.30;99.90
25568;DHT22;13455;51.480;7.594;2023-05-28T07:10:29;16.40;99.90
25568;DHT22;13455;51.480;7.594;2023-05-28T07:12:55;17.00;99.90
25568;DHT22;13455;51.480;7.594;2023-05-28T07:15:21;17.00;99.90
25568;DHT22;13455;51.480;7.594;2023-05-28T07:17:47;16.90;99.90
25568;DHT22;13455;51.480;7.594;2023-05-28T07:20:13;16.60;99.90
25568;DHT22;13455;51.480;7.594;2023-05-28T07:22:39;17.10;99.90
25568;DHT22;13455;51.480;7.594;2023-05-28T07:25:06;17.00;99.90
25568;DHT22;13455;51.480;7.594;2023-05-28T07:27:32;17.10;99.90
25568;DHT22;13455;51.480;7.594;2023-05-28T07:29:57;17.30;99.90
25568;DHT22;13455;51.480;7.594;2023-05-28T07:32:23;17.20;99.90
25568;DHT22;13455;51.480;7.594;2023-05-28T07:34:49;17.30;99.90
25568;DHT22;13455;51.480;7.594;2023-05-28T07:37:15;17.60;99.90
25568;DHT22;13455;51.480;7.594;2023-05-28T07:39:41;17.60;99.90
25568;DHT22;13455;51.480;7.594;2023-05-28T07:42:06;17.80;99.90
25568;DHT22;13455;51.480;7.594;2023-05-28T07:44:32;17.80;99.90
25568;DHT22;13455;51.480;7.594;2023-05-28T07:47:01;17.90;99.90
25568;DHT22;13455;51.480;7.594;2023-05-28T07:56:45;18.40;99.90
25568;DHT22;13455;51.480;7.594;2023-05-28T07:59:11;18.60;99.90
25568;DHT22;13455;51.480;7.594;2023-05-28T08:01:36;18.60;99.90
25568;DHT22;13455;51.480;7.594;2023-05-28T08:04:02;18.60;99.90
25568;DHT22;13455;51.480;7.594;2023-05-28T08:06:28;18.70;99.90
25568;DHT22;13455;51.480;7.594;2023-05-28T08:08:54;18.70;99.90
25568;DHT22;13455;51.480;7.594;2023-05-28T08:11:20;18.90;99.90
25568;DHT22;13455;51.480;7.594;2023-05-28T08:16:13;19.30;99.90
25568;DHT22;13455;51.480;7.594;2023-05-28T08:18:38;19.30;99.90
25568;DHT22;13455;51.480;7.594;2023-05-28T08:21:05;19.20;99.90
25568;DHT22;13455;51.480;7.594;2023-05-28T08:23:32;19.60;99.90
25568;DHT22;13455;51.480;7.594;2023-05-28T08:26:01;19.40;99.90
25568;DHT22;13455;51.480;7.594;2023-05-28T08:28:28;19.50;99.90
25568;DHT22;13455;51.480;7.594;2023-05-28T08:30:55;19.70;99.90
25568;DHT22;13455;51.480;7.594;2023-05-28T08:33:21;19.70;99.90
25568;DHT22;13455;51.480;7.594;2023-05-28T08:35:46;19.80;99.90
25568;DHT22;13455;51.480;7.594;2023-05-28T08:38:12;19.90;99.90
25568;DHT22;13455;51.480;7.594;2023-05-28T08:40:43;20.00;99.90
25568;DHT22;13455;51.480;7.594;2023-05-28T08:43:09;20.20;99.90
25568;DHT22;13455;51.480;7.594;2023-05-28T08:48:06;20.50;99.90
25568;DHT22;13455;51.480;7.594;2023-05-28T08:50:36;20.60;99.90
25568;DHT22;13455;51.480;7.594;2023-05-28T08:53:05;20.80;99.90
25568;DHT22;13455;51.480;7.594;2023-05-28T08:55:33;20.90;99.90
25568;DHT22;13455;51.480;7.594;2023-05-28T08:58:00;21.20;99.90
25568;DHT22;13455;51.480;7.594;2023-05-28T09:02:51;21.30;99.90
25568;DHT22;13455;51.480;7.594;2023-05-28T09:05:17;21.40;99.90
25568;DHT22;13455;51.480;7.594;2023-05-28T09:07:43;21.50;99.90
25568;DHT22;13455;51.480;7.594;2023-05-28T09:10:11;21.70;99.60
25568;DHT22;13455;51.480;7.594;2023-05-28T09:12:37;22.00;99.90
25568;DHT22;13455;51.480;7.594;2023-05-28T09:15:06;22.10;99.90
25568;DHT22;13455;51.480;7.594;2023-05-28T09:22:30;22.70;96.80
25568;DHT22;13455;51.480;7.594;2023-05-28T09:24:56;22.50;95.40
25568;DHT22;13455;51.480;7.594;2023-05-28T09:27:25;22.60;95.40
25568;DHT22;13455;51.480;7.594;2023-05-28T09:29:51;22.60;96.00
25568;DHT22;13455;51.480;7.594;2023-05-28T09:32:18;22.80;96.20
25568;DHT22;13455;51.480;7.594;2023-05-28T09:34:49;22.90;95.90
25568;DHT22;13455;51.480;7.594;2023-05-28T09:37:18;23.00;94.50
25568;DHT22;13455;51.480;7.594;2023-05-28T09:39:44;23.20;94.70
25568;DHT22;13455;51.480;7.594;2023-05-28T09:42:10;23.30;94.00
25568;DHT22;13455;51.480;7.594;2023-05-28T09:44:37;23.50;94.10
25568;DHT22;13455;51.480;7.594;2023-05-28T09:47:17;23.50;93.00
25568;DHT22;13455;51.480;7.594;2023-05-28T09:49:44;23.90;93.00
25568;DHT22;13455;51.480;7.594;2023-05-28T09:52:17;24.00;91.50
25568;DHT22;13455;51.480;7.594;2023-05-28T09:54:54;24.10;91.10
25568;DHT22;13455;51.480;7.594;2023-05-28T09:57:29;24.30;90.10
25568;DHT22;13455;51.480;7.594;2023-05-28T09:59:55;24.30;90.50
25568;DHT22;13455;51.480;7.594;2023-05-28T10:02:25;24.40;86.80
25568;DHT22;13455;51.480;7.594;2023-05-28T10:07:21;24.40;86.20
25568;DHT22;13455;51.480;7.594;2023-05-28T10:09:50;24.50;83.60
25568;DHT22;13455;51.480;7.594;2023-05-28T10:12:23;24.30;83.60
25568;DHT22;13455;51.480;7.594;2023-05-28T10:14:53;24.70;81.40
25568;DHT22;13455;51.480;7.594;2023-05-28T10:17:20;24.70;81.70
25568;DHT22;13455;51.480;7.594;2023-05-28T10:22:13;24.80;73.40
25568;DHT22;13455;51.480;7.594;2023-05-28T10:27:06;25.20;76.40
25568;DHT22;13455;51.480;7.594;2023-05-28T10:29:42;25.60;73.40
25568;DHT22;13455;51.480;7.594;2023-05-28T10:39:44;25.30;82.50
25568;DHT22;13455;51.480;7.594;2023-05-28T11:00:00;26.70;60.70
25568;DHT22;13455;51.480;7.594;2023-05-28T11:02:33;26.70;61.80
25568;DHT22;13455;51.480;7.594;2023-05-28T11:05:00;26.80;61.70
25568;DHT22;13455;51.480;7.594;2023-05-28T11:12:28;26.70;92.70
25568;DHT22;13455;51.480;7.594;2023-05-28T11:22:13;27.50;55.70
25568;DHT22;13455;51.480;7.594;2023-05-28T11:24:53;27.70;56.90
25568;DHT22;13455;51.480;7.594;2023-05-28T11:27:21;27.70;90.70
25568;DHT22;13455;51.480;7.594;2023-05-28T11:29:48;27.80;56.80
25568;DHT22;13455;51.480;7.594;2023-05-28T11:32:14;27.80;54.70
25568;DHT22;13455;51.480;7.594;2023-05-28T11:39:37;28.00;94.60
25568;DHT22;13455;51.480;7.594;2023-05-28T11:42:07;27.90;91.20
25568;DHT22;13455;51.480;7.594;2023-05-28T11:44:33;27.80;91.90
25568;DHT22;13455;51.480;7.594;2023-05-28T11:46:59;27.80;92.50
25568;DHT22;13455;51.480;7.594;2023-05-28T11:49:24;27.80;54.30
25568;DHT22;13455;51.480;7.594;2023-05-28T11:51:53;27.90;55.50
25568;DHT22;13455;51.480;7.594;2023-05-28T11:54:19;28.10;55.20
25568;DHT22;13455;51.480;7.594;2023-05-28T11:59:15;28.40;66.80
25568;DHT22;13455;51.480;7.594;2023-05-28T12:01:42;28.50;52.20
25568;DHT22;13455;51.480;7.594;2023-05-28T12:04:08;28.70;52.70
25568;DHT22;13455;51.480;7.594;2023-05-28T12:09:08;28.80;50.20
25568;DHT22;13455;51.480;7.594;2023-05-28T12:31:34;28.90;51.50
25568;DHT22;13455;51.480;7.594;2023-05-28T12:36:26;29.30;79.00
25568;DHT22;13455;51.480;7.594;2023-05-28T12:41:17;29.30;48.30
25568;DHT22;13455;51.480;7.594;2023-05-28T12:43:43;29.30;49.70
25568;DHT22;13455;51.480;7.594;2023-05-28T12:46:10;29.40;50.10
25568;DHT22;13455;51.480;7.594;2023-05-28T12:48:35;29.70;49.80
25568;DHT22;13455;51.480;7.594;2023-05-28T12:51:01;29.70;50.00
25568;DHT22;13455;51.480;7.594;2023-05-28T12:53:29;29.90;50.20
25568;DHT22;13455;51.480;7.594;2023-05-28T12:55:55;30.10;46.90
25568;DHT22;13455;51.480;7.594;2023-05-28T12:58:20;30.10;48.10
25568;DHT22;13455;51.480;7.594;2023-05-28T13:00:48;30.10;48.50
25568;DHT22;13455;51.480;7.594;2023-05-28T13:05:41;30.20;82.00
25568;DHT22;13455;51.480;7.594;2023-05-28T13:08:07;30.30;83.90
25568;DHT22;13455;51.480;7.594;2023-05-28T13:10:33;30.60;86.10
25568;DHT22;13455;51.480;7.594;2023-05-28T13:39:46;32.20;45.70
25568;DHT22;13455;51.480;7.594;2023-05-28T13:42:12;32.30;46.10
25568;DHT22;13455;51.480;7.594;2023-05-28T13:44:38;32.20;44.70
25568;DHT22;13455;51.480;7.594;2023-05-28T13:47:05;32.00;45.30
25568;DHT22;13455;51.480;7.594;2023-05-28T13:49:30;31.70;45.50
25568;DHT22;13455;51.480;7.594;2023-05-28T13:51:56;31.70;45.80
25568;DHT22;13455;51.480;7.594;2023-05-28T13:54:22;31.70;45.90
25568;DHT22;13455;51.480;7.594;2023-05-28T13:56:47;32.00;46.40
25568;DHT22;13455;51.480;7.594;2023-05-28T13:59:13;32.10;45.30
25568;DHT22;13455;51.480;7.594;2023-05-28T14:04:05;32.70;57.80
25568;DHT22;13455;51.480;7.594;2023-05-28T14:06:31;32.70;44.20
25568;DHT22;13455;51.480;7.594;2023-05-28T14:08:57;32.30;44.20
25568;DHT22;13455;51.480;7.594;2023-05-28T14:11:23;32.20;45.00
25568;DHT22;13455;51.480;7.594;2023-05-28T14:13:49;32.40;45.10
25568;DHT22;13455;51.480;7.594;2023-05-28T14:16:14;32.50;45.00
25568;DHT22;13455;51.480;7.594;2023-05-28T14:18:43;32.50;45.10
25568;DHT22;13455;51.480;7.594;2023-05-28T14:21:09;32.50;44.30
25568;DHT22;13455;51.480;7.594;2023-05-28T14:23:34;32.70;44.40
25568;DHT22;13455;51.480;7.594;2023-05-28T14:26:00;32.70;44.80
25568;DHT22;13455;51.480;7.594;2023-05-28T14:30:52;32.60;41.90
25568;DHT22;13455;51.480;7.594;2023-05-28T14:33:18;32.20;42.90
25568;DHT22;13455;51.480;7.594;2023-05-28T14:35:43;32.20;43.20
25568;DHT22;13455;51.480;7.594;2023-05-28T14:38:09;33.00;44.00
25568;DHT22;13455;51.480;7.594;2023-05-28T14:40:34;33.00;43.00
25568;DHT22;13455;51.480;7.594;2023-05-28T14:43:00;32.60;41.20
25568;DHT22;13455;51.480;7.594;2023-05-28T14:45:26;32.10;41.30
25568;DHT22;13455;51.480;7.594;2023-05-28T14:47:52;32.00;41.70
25568;DHT22;13455;51.480;7.594;2023-05-28T14:50:17;32.00;42.60
25568;DHT22;13455;51.480;7.594;2023-05-28T14:52:43;31.70;42.10
25568;DHT22;13455;51.480;7.594;2023-05-28T15:02:34;31.60;43.40
25568;DHT22;13455;51.480;7.594;2023-05-28T15:05:00;31.70;44.20
25568;DHT22;13455;51.480;7.594;2023-05-28T15:07:25;31.60;44.60
25568;DHT22;13455;51.480;7.594;2023-05-28T15:09:51;31.50;44.80
25568;DHT22;13455;51.480;7.594;2023-05-28T15:12:16;31.40;45.80
25568;DHT22;13455;51.480;7.594;2023-05-28T15:14:42;31.50;46.00
25568;DHT22;13455;51.480;7.594;2023-05-28T15:17:08;31.60;46.20
25568;DHT22;13455;51.480;7.594;2023-05-28T15:19:33;31.60;46.50
25568;DHT22;13455;51.480;7.594;2023-05-28T15:21:59;31.50;47.20
25568;DHT22;13455;51.480;7.594;2023-05-28T15:24:25;31.30;46.70
25568;DHT22;13455;51.480;7.594;2023-05-28T15:26:50;31.60;47.50
25568;DHT22;13455;51.480;7.594;2023-05-28T15:29:16;31.90;46.90
25568;DHT22;13455;51.480;7.594;2023-05-28T15:31:46;32.10;46.10
25568;DHT22;13455;51.480;7.594;2023-05-28T15:36:38;32.90;85.20
25568;DHT22;13455;51.480;7.594;2023-05-28T15:39:04;32.90;44.10
25568;DHT22;13455;51.480;7.594;2023-05-28T15:41:32;33.00;45.00
25568;DHT22;13455;51.480;7.594;2023-05-28T15:43:58;33.60;44.00
25568;DHT22;13455;51.480;7.594;2023-05-28T15:46:24;33.50;42.80
25568;DHT22;13455;51.480;7.594;2023-05-28T15:48:50;33.40;47.50
25568;DHT22;13455;51.480;7.594;2023-05-28T15:51:15;33.40;48.30
25568;DHT22;13455;51.480;7.594;2023-05-28T15:53:41;33.00;42.30
25568;DHT22;13455;51.480;7.594;2023-05-28T15:56:07;33.00;43.30
25568;DHT22;13455;51.480;7.594;2023-05-28T15:58:33;33.00;43.10
25568;DHT22;13455;51.480;7.594;2023-05-28T16:00:59;32.80;42.40
25568;DHT22;13455;51.480;7.594;2023-05-28T16:03:25;32.50;43.50
25568;DHT22;13455;51.480;7.594;2023-05-28T16:05:51;32.10;43.80
25568;DHT22;13455;51.480;7.594;2023-05-28T16:10:43;32.20;43.50
25568;DHT22;13455;51.480;7.594;2023-05-28T16:13:09;32.20;62.10
25568;DHT22;13455;51.480;7.594;2023-05-28T16:15:39;31.70;65.50
25568;DHT22;13455;51.480;7.594;2023-05-28T16:18:06;31.40;45.20
25568;DHT22;13455;51.480;7.594;2023-05-28T16:25:26;29.90;44.00
25568;DHT22;13455;51.480;7.594;2023-05-28T16:27:52;30.90;45.20
25568;DHT22;13455;51.480;7.594;2023-05-28T16:30:20;31.00;45.20
25568;DHT22;13455;51.480;7.594;2023-05-28T16:32:46;30.90;45.10
25568;DHT22;13455;51.480;7.594;2023-05-28T16:35:12;30.90;45.20
25568;DHT22;13455;51.480;7.594;2023-05-28T16:37:38;30.80;45.10
25568;DHT22;13455;51.480;7.594;2023-05-28T16:40:05;30.60;44.60
25568;DHT22;13455;51.480;7.594;2023-05-28T16:42:34;30.50;45.70
25568;DHT22;13455;51.480;7.594;2023-05-28T16:45:02;30.70;58.30
25568;DHT22;13455;51.480;7.594;2023-05-28T16:47:28;30.80;54.40
25568;DHT22;13455;51.480;7.594;2023-05-28T16:49:56;30.40;53.10
25568;DHT22;13455;51.480;7.594;2023-05-28T16:52:23;30.30;45.50
25568;DHT22;13455;51.480;7.594;2023-05-28T16:54:53;30.20;46.00
25568;DHT22;13455;51.480;7.594;2023-05-28T16:57:24;29.60;46.50
25568;DHT22;13455;51.480;7.594;2023-05-28T17:04:44;28.90;46.60
25568;DHT22;13455;51.480;7.594;2023-05-28T17:09:36;28.40;84.90
25568;DHT22;13455;51.480;7.594;2023-05-28T17:19:20;27.80;76.50
25568;DHT22;13455;51.480;7.594;2023-05-28T17:36:28;26.60;51.40
25568;DHT22;13455;51.480;7.594;2023-05-28T17:38:55;26.60;52.20
25568;DHT22;13455;51.480;7.594;2023-05-28T17:46:16;26.30;52.90
25568;DHT22;13455;51.480;7.594;2023-05-28T17:51:07;26.10;53.60
25568;DHT22;13455;51.480;7.594;2023-05-28T18:08:13;25.30;55.40
25568;DHT22;13455;51.480;7.594;2023-05-28T18:13:05;24.80;56.60
25568;DHT22;13455;51.480;7.594;2023-05-28T18:22:49;24.40;57.80
25568;DHT22;13455;51.480;7.594;2023-05-28T18:27:41;24.00;72.00
25568;DHT22;13455;51.480;7.594;2023-05-28T18:32:34;23.70;70.60
25568;DHT22;13455;51.480;7.594;2023-05-28T18:39:52;23.70;61.80
25568;DHT22;13455;51.480;7.594;2023-05-28T18:44:45;23.50;62.30
25568;DHT22;13455;51.480;7.594;2023-05-28T18:49:37;23.20;63.40
25568;DHT22;13455;51.480;7.594;2023-05-28T18:52:03;23.10;64.90
25568;DHT22;13455;51.480;7.594;2023-05-28T18:54:29;22.90;65.00
25568;DHT22;13455;51.480;7.594;2023-05-28T18:59:22;22.70;65.70
25568;DHT22;13455;51.480;7.594;2023-05-28T19:01:48;22.60;66.70
25568;DHT22;13455;51.480;7.594;2023-05-28T19:04:13;22.50;67.20
25568;DHT22;13455;51.480;7.594;2023-05-28T19:06:40;22.50;67.50
25568;DHT22;13455;51.480;7.594;2023-05-28T19:09:06;22.40;67.90
25568;DHT22;13455;51.480;7.594;2023-05-28T19:11:31;22.30;68.40
25568;DHT22;13455;51.480;7.594;2023-05-28T19:13:57;22.30;68.90
25568;DHT22;13455;51.480;7.594;2023-05-28T19:16:26;22.20;69.60
25568;DHT22;13455;51.480;7.594;2023-05-28T19:18:53;22.10;69.80
25568;DHT22;13455;51.480;7.594;2023-05-28T19:21:19;22.00;70.40
25568;DHT22;13455;51.480;7.594;2023-05-28T19:23:45;21.80;72.50
25568;DHT22;13455;51.480;7.594;2023-05-28T19:26:10;21.70;71.60
25568;DHT22;13455;51.480;7.594;2023-05-28T19:28:36;21.60;77.80